首页
METAR-TAF:

METAR-TAF

机场 :

薩圖馬雷, 罗马尼亚

纬度: 47-48N, 经度: 022-53E, 海拔: 123米

当前天气观测

该预报发布于32分钟前的19:00 UTC
风速5节,风向南转西南
温度 3°C
湿度 75%
气压 1018 hPa
能見度: 7000
小雪

METAR: LRSM 191900Z AUTO 20005KT 7000 -SN FEW080/// BKN210/// 03/M01 Q1018

时间: 21:32 (19:32 UTC)

预报

该预报发布于5小时和32分钟前的14:00 UTC
预报有效从19日的 15点(UTC)到 19日的 24点(UTC)
风速8节,风向西转西南
能见度10公里或以上
1500米以下无云,无积雨云

TAF: LRSM 191400Z 1915/1924 24008KT CAVOK

超过4000个机场的气象观测和天气预报(METAR&TAF报告)。

可查询的气象台以黄色和红色小点在地图上表示。

将鼠标移到小点上方,可查看气象台名称。

然后点击查看天气观测和预报。

如需切换地图:点击带黑十字的绿色按钮放大地图;点击带横线的绿色按钮缩小地图;或者点击绿色箭头查看邻近地区的地图。


METAR-TAF: